Time;durP1;ratioP1;P1;durP2;ratioP2;P2;SDS_P1;SDS_P2;PMS_P1;PMS_P2;Temp;Humidity;BMP_temperature;BMP_pressure;BME280_temperature;BME280_humidity;BME280_pressure;Samples;Min_cycle;Max_cycle;Signal;HPM_P1;HPM_P2
2021/07/12 00:00:19;;;;;;;23.42;10.80;;;;;;;22.16;70.63;99456.00;3478187;28;20085;-43
2021/07/12 00:02:00;;;;;;;20.63;11.43;;;;;;;22.16;70.33;99453.38;3482278;28;20045;-43
2021/07/12 00:03:42;;;;;;;18.42;10.43;;;;;;;22.17;70.38;99455.06;3471530;28;20425;-42
2021/07/12 00:05:25;;;;;;;18.98;11.45;;;;;;;22.18;70.47;99451.53;3470993;28;20080;-43
2021/07/12 00:07:06;;;;;;;23.88;11.55;;;;;;;22.19;69.95;99447.97;3482087;28;20652;-43
2021/07/12 00:08:47;;;;;;;12.93;10.35;;;;;;;22.19;70.43;99447.09;3478419;28;20148;-42
2021/07/12 00:10:31;;;;;;;20.75;10.45;;;;;;;22.18;70.50;99448.03;3468630;28;20089;-43
2021/07/12 00:12:12;;;;;;;27.70;10.85;;;;;;;22.17;70.82;99451.56;3471084;28;20072;-43
2021/07/12 00:13:53;;;;;;;23.70;10.90;;;;;;;22.14;71.52;99449.03;3469090;28;20072;-43
2021/07/12 00:15:36;;;;;;;22.70;10.50;;;;;;;22.11;70.92;99455.31;3478047;28;20160;-43
2021/07/12 00:17:17;;;;;;;22.10;11.13;;;;;;;22.09;71.73;99451.88;3479223;28;20083;-43
2021/07/12 00:18:59;;;;;;;22.23;10.57;;;;;;;22.07;71.29;99445.78;3481846;28;20045;-42
2021/07/12 00:20:40;;;;;;;17.15;10.40;;;;;;;22.05;70.75;99441.47;3477771;28;20045;-42
2021/07/12 00:22:21;;;;;;;27.60;10.80;;;;;;;22.04;71.62;99445.91;3482386;28;20076;-42
2021/07/12 00:24:03;;;;;;;18.55;10.68;;;;;;;22.03;71.26;99441.53;3477995;28;20048;-42
2021/07/12 00:25:45;;;;;;;18.00;10.38;;;;;;;22.02;70.93;99445.94;3481866;28;20510;-43
2021/07/12 00:27:26;;;;;;;21.83;10.38;;;;;;;22.02;71.18;99445.94;3478226;28;20126;-43
2021/07/12 00:29:08;;;;;;;18.20;10.65;;;;;;;22.02;71.32;99445.09;3478528;28;20084;-43
2021/07/12 00:30:50;;;;;;;23.48;11.90;;;;;;;22.02;70.97;99439.81;3480498;28;20072;-44
2021/07/12 00:32:31;;;;;;;17.48;10.50;;;;;;;22.01;71.00;99440.72;3477932;28;20135;-43
2021/07/12 00:34:12;;;;;;;19.48;10.50;;;;;;;22.00;71.29;99441.63;3468601;28;20084;-44
2021/07/12 00:35:54;;;;;;;19.67;10.50;;;;;;;21.99;71.29;99439.91;3473613;28;20148;-43
2021/07/12 00:37:35;;;;;;;24.23;10.65;;;;;;;21.96;70.96;99430.31;3481740;28;20083;-43
2021/07/12 00:39:16;;;;;;;18.20;10.65;;;;;;;21.95;71.32;99431.25;3478146;28;20136;-43
2021/07/12 00:40:58;;;;;;;22.50;11.20;;;;;;;21.96;71.54;99432.94;3480218;28;20128;-43
2021/07/12 00:42:40;;;;;;;19.92;11.25;;;;;;;21.96;71.38;99430.31;3469638;28;20576;-43
2021/07/12 00:44:22;;;;;;;18.55;11.10;;;;;;;21.94;71.14;99428.66;3471367;28;20565;-42
2021/07/12 00:46:07;;;;;;;26.95;10.52;;;;;;;21.94;71.28;99434.78;3482120;28;20091;-43
2021/07/12 00:47:50;;;;;;;20.52;10.82;;;;;;;21.93;71.03;99437.50;3477645;28;20045;-43
2021/07/12 00:49:32;;;;;;;18.05;10.02;;;;;;;21.92;71.12;99431.34;3481935;28;20087;-43
2021/07/12 00:51:14;;;;;;;24.63;12.18;;;;;;;21.90;71.25;99427.06;3477906;28;20158;-42
2021/07/12 00:52:56;;;;;;;19.58;10.80;;;;;;;21.88;71.48;99435.03;3476680;28;20707;-43
2021/07/12 00:54:38;;;;;;;20.17;10.50;;;;;;;21.87;71.38;99437.72;3468861;28;20058;-43
2021/07/12 00:56:19;;;;;;;17.23;10.60;;;;;;;21.85;71.31;99427.22;3471902;28;20077;-43
2021/07/12 00:58:01;;;;;;;19.63;10.63;;;;;;;21.81;71.06;99431.75;3482092;28;20087;-42
2021/07/12 00:59:43;;;;;;;17.77;10.57;;;;;;;21.80;71.29;99435.28;3472999;28;20140;-43
2021/07/12 01:01:26;;;;;;;17.27;11.15;;;;;;;21.78;70.88;99423.94;3469068;28;20084;-42
2021/07/12 01:03:09;;;;;;;15.88;11.10;;;;;;;21.77;70.99;99431.91;3478170;28;20053;-43
2021/07/12 01:04:50;;;;;;;14.20;10.88;;;;;;;21.75;71.18;99423.19;3478737;28;20161;-42
2021/07/12 01:06:31;;;;;;;15.85;11.23;;;;;;;21.72;71.32;99423.28;3481251;28;20056;-42
2021/07/12 01:08:13;;;;;;;16.25;11.07;;;;;;;21.70;72.19;99425.13;3477483;28;20088;-43
2021/07/12 01:09:54;;;;;;;14.57;10.30;;;;;;;21.67;71.97;99414.69;3481958;28;20053;-42
2021/07/12 01:11:42;;;;;;;16.50;10.65;;;;;;;21.66;72.67;99421.72;3473637;28;20530;-42
2021/07/12 01:13:30;;;;;;;14.82;10.77;;;;;;;21.64;72.85;99420.94;3467857;28;20076;-44
2021/07/12 01:15:13;;;;;;;15.23;10.80;;;;;;;21.59;74.22;99418.41;3478699;28;20060;-42
2021/07/12 01:17:02;;;;;;;13.13;10.38;;;;;;;21.55;72.65;99416.81;3478889;28;20072;-42
2021/07/12 01:18:52;;;;;;;15.60;10.82;;;;;;;21.52;73.16;99414.25;3468181;28;20084;-42
2021/07/12 01:21:02;;;;;;;15.23;10.60;;;;;;;21.51;73.60;99425.75;3480033;28;20550;-42
2021/07/12 01:23:02;;;;;;;17.17;10.45;;;;;;;21.52;73.52;99422.19;3480236;28;20130;-43
2021/07/12 01:25:27;;;;;;;15.93;10.52;;;;;;;21.50;73.10;99429.31;3470609;28;20073;-42
2021/07/12 01:27:58;;;;;;;20.77;11.20;;;;;;;21.48;73.15;99425.00;3481959;28;20048;-43
2021/07/12 01:30:04;;;;;;;20.73;10.85;;;;;;;21.45;73.86;99426.84;3472719;28;20049;-42
2021/07/12 01:32:14;;;;;;;15.40;10.32;;;;;;;21.42;74.00;99423.44;3474095;28;20045;-42
2021/07/12 01:34:01;;;;;;;14.55;10.70;;;;;;;21.37;75.06;99423.59;3472092;28;20129;-43
2021/07/12 01:35:55;;;;;;;15.57;10.50;;;;;;;21.36;74.55;99427.13;3473029;28;20116;-44
2021/07/12 01:37:44;;;;;;;14.70;10.95;;;;;;;21.35;74.42;99433.34;3471907;28;20091;-43
2021/07/12 01:39:29;;;;;;;17.60;10.38;;;;;;;21.34;74.42;99428.97;3484151;28;20076;-42
2021/07/12 01:41:19;;;;;;;17.85;10.63;;;;;;;21.33;74.82;99424.63;3476465;28;20554;-43
2021/07/12 01:43:07;;;;;;;13.60;10.27;;;;;;;21.30;73.55;99437.06;3471153;28;20050;-42
2021/07/12 01:44:58;;;;;;;19.50;10.90;;;;;;;21.28;74.19;99431.84;3480575;28;20144;-42
2021/07/12 01:46:48;;;;;;;13.35;11.25;;;;;;;21.30;74.11;99437.06;3478032;28;20553;-42
2021/07/12 01:48:37;;;;;;;11.75;10.55;;;;;;;21.30;74.24;99434.41;3483788;28;20122;-44
2021/07/12 01:50:26;;;;;;;12.70;10.68;;;;;;;21.32;74.05;99438.72;3473518;28;20092;-43
2021/07/12 01:52:11;;;;;;;13.13;10.52;;;;;;;21.34;74.01;99433.41;3471660;28;20466;-42
2021/07/12 01:54:01;;;;;;;13.27;11.02;;;;;;;21.35;73.96;99441.25;3471133;28;20495;-42
2021/07/12 01:55:56;;;;;;;12.27;10.50;;;;;;;21.36;73.92;99442.13;3474042;28;20076;-42
2021/07/12 01:57:47;;;;;;;13.35;11.00;;;;;;;21.37;73.75;99439.44;3483723;28;20063;-42
2021/07/12 01:59:37;;;;;;;14.32;10.85;;;;;;;21.37;73.97;99434.16;3471665;28;20054;-43
2021/07/12 02:01:21;;;;;;;12.73;10.35;;;;;;;21.36;74.26;99437.69;3471566;28;20072;-43
2021/07/12 02:03:03;;;;;;;13.73;10.55;;;;;;;21.36;75.25;99439.47;3483200;28;20053;-44
2021/07/12 02:04:47;;;;;;;13.93;10.17;;;;;;;21.35;75.22;99435.97;3478164;28;20072;-42
2021/07/12 02:06:33;;;;;;;;;;;;;;;21.36;74.04;99432.41;3484270;28;20396;-42
2021/07/12 02:08:18;;;;;;;17.40;10.15;;;;;;;21.38;74.49;99424.44;3478425;28;20385;-42
2021/07/12 02:10:03;;;;;;;18.52;10.25;;;;;;;21.39;74.61;99434.09;3481263;28;20472;-43
2021/07/12 02:11:45;;;;;;;13.48;11.27;;;;;;;21.38;75.39;99443.81;3483908;28;20507;-43
2021/07/12 02:13:28;;;;;;;21.05;11.48;;;;;;;21.38;74.36;99435.88;3479300;28;20144;-42
2021/07/12 02:15:11;;;;;;;16.95;11.45;;;;;;;21.37;73.90;99435.94;3483489;28;20431;-42
2021/07/12 02:16:54;;;;;;;17.02;11.48;;;;;;;21.40;74.12;99433.16;3475365;28;20073;-43
2021/07/12 02:18:55;;;;;;;16.05;10.57;;;;;;;21.42;74.03;99441.91;3471737;28;20060;-42
2021/07/12 02:20:38;;;;;;;17.17;10.98;;;;;;;21.43;73.74;99436.56;3470862;28;20159;-42
2021/07/12 02:22:22;;;;;;;21.38;11.75;;;;;;;21.45;74.08;99433.88;3473337;28;20079;-42
2021/07/12 02:24:04;;;;;;;22.48;11.88;;;;;;;21.50;74.12;99436.38;3469966;28;20088;-42
2021/07/12 02:25:46;;;;;;;29.00;12.40;;;;;;;21.53;74.42;99439.75;3473562;28;20064;-42
2021/07/12 02:27:30;;;;;;;28.73;11.85;;;;;;;21.56;73.72;99437.03;3469287;28;20143;-43
2021/07/12 02:29:14;;;;;;;29.00;12.75;;;;;;;21.59;73.29;99431.59;3479937;28;20084;-43
2021/07/12 02:30:57;;;;;;;23.20;12.35;;;;;;;21.64;73.37;99431.50;3478643;28;20468;-42
2021/07/12 02:32:40;;;;;;;32.60;12.25;;;;;;;21.71;73.60;99429.50;3482665;28;20133;-42
2021/07/12 02:34:23;;;;;;;24.52;12.95;;;;;;;21.73;73.32;99431.16;3479057;28;20545;-43
2021/07/12 02:36:05;;;;;;;29.45;12.73;;;;;;;21.78;72.97;99423.94;3483294;28;20060;-42
2021/07/12 02:37:48;;;;;;;22.38;11.93;;;;;;;21.81;72.49;99426.47;3478762;28;20166;-43
2021/07/12 02:39:30;;;;;;;;;;;;;;;21.86;72.45;99426.31;3482153;28;20080;-42
2021/07/12 02:41:14;;;;;;;29.35;12.60;;;;;;;21.91;72.93;99427.00;3472090;28;19956;-43
2021/07/12 02:42:57;;;;;;;24.25;12.93;;;;;;;21.98;73.30;99423.22;3471727;28;20148;-42
2021/07/12 02:44:42;;;;;;;21.25;11.77;;;;;;;22.04;72.45;99430.06;3483303;28;20053;-43
2021/07/12 02:46:25;;;;;;;22.35;13.38;;;;;;;22.08;72.72;99417.59;3478832;28;20049;-42
2021/07/12 02:48:07;;;;;;;28.77;12.27;;;;;;;22.14;72.99;99419.97;3482751;28;20052;-43
2021/07/12 02:49:49;;;;;;;21.63;11.95;;;;;;;22.18;72.71;99418.97;3481237;28;20045;-42
2021/07/12 02:51:34;;;;;;;27.38;13.60;;;;;;;22.22;72.74;99417.91;3481046;28;20166;-42
2021/07/12 02:53:19;;;;;;;25.80;12.57;;;;;;;22.28;72.77;99419.47;3478214;28;20068;-43
2021/07/12 02:55:01;;;;;;;19.27;11.68;;;;;;;22.30;71.87;99418.50;3477543;28;20565;-42
2021/07/12 02:56:43;;;;;;;21.00;11.25;;;;;;;22.34;71.96;99417.44;3483041;28;20545;-42
2021/07/12 02:58:24;;;;;;;19.42;10.73;;;;;;;22.38;72.36;99419.03;3478786;28;20466;-43
2021/07/12 03:00:09;;;;;;;16.63;11.75;;;;;;;22.42;72.34;99414.50;3482867;28;20045;-42
2021/07/12 03:01:50;;;;;;;16.38;11.68;;;;;;;22.47;72.22;99412.56;3479729;28;20099;-42
2021/07/12 03:03:32;;;;;;;16.88;11.73;;;;;;;22.50;71.92;99407.16;3480721;28;20573;-43
2021/07/12 03:05:13;;;;;;;19.27;10.50;;;;;;;22.54;71.89;99408.75;3469815;28;20144;-42
2021/07/12 03:06:57;;;;;;;22.27;11.32;;;;;;;22.59;72.13;99406.78;3473470;28;20072;-42
2021/07/12 03:08:46;;;;;;;20.92;12.02;;;;;;;22.65;72.81;99416.25;3483018;28;20091;-44
2021/07/12 03:10:30;;;;;;;18.48;11.40;;;;;;;22.70;71.56;99411.66;3472323;28;20135;-42
2021/07/12 03:12:21;;;;;;;17.23;11.02;;;;;;;22.77;71.83;99412.28;3470521;28;20103;-42
2021/07/12 03:14:11;;;;;;;17.85;11.20;;;;;;;22.83;72.28;99412.03;3468964;28;20426;-43
2021/07/12 03:15:53;;;;;;;15.43;10.80;;;;;;;22.89;71.80;99419.69;3473665;28;20513;-43
2021/07/12 03:17:38;;;;;;;14.90;10.98;;;;;;;22.95;73.97;99421.22;3482780;28;20453;-42
2021/07/12 03:19:25;;;;;;;18.40;11.57;;;;;;;23.02;74.60;99422.69;3473702;28;20072;-42
2021/07/12 03:21:07;;;;;;;19.17;10.73;;;;;;;23.08;71.66;99429.53;3470648;28;20044;-43
2021/07/12 03:22:51;;;;;;;21.88;9.77;;;;;;;23.12;67.25;99436.41;3469961;28;20081;-43
2021/07/12 03:24:36;;;;;;;20.25;11.85;;;;;;;23.18;68.02;99424.72;3472824;28;20045;-43
2021/07/12 03:26:20;;;;;;;21.67;11.82;;;;;;;23.25;68.36;99416.44;3470238;28;20073;-43
2021/07/12 03:28:04;;;;;;;26.23;12.32;;;;;;;23.31;68.59;99407.44;3478325;28;20152;-43
2021/07/12 03:29:46;;;;;;;22.40;10.93;;;;;;;23.40;68.21;99414.97;3481212;28;20099;-43
2021/07/12 03:31:30;;;;;;;21.15;11.38;;;;;;;23.48;68.00;99414.63;3479112;28;20128;-42
2021/07/12 03:33:14;;;;;;;25.50;10.80;;;;;;;23.54;67.66;99417.03;3479733;28;23777;-42
2021/07/12 03:34:57;;;;;;;22.73;11.68;;;;;;;23.66;68.96;99415.59;3468859;28;20135;-43
2021/07/12 03:36:39;;;;;;;23.05;11.68;;;;;;;23.75;68.86;99411.69;3470712;28;20140;-43
2021/07/12 03:38:22;;;;;;;22.52;11.20;;;;;;;23.83;68.73;99405.13;3469503;28;20077;-43
2021/07/12 03:40:06;;;;;;;28.63;11.65;;;;;;;23.91;67.89;99408.28;3478842;28;20084;-43
2021/07/12 03:41:48;;;;;;;22.45;11.18;;;;;;;23.99;68.50;99415.88;3480792;28;20057;-43
2021/07/12 03:43:29;;;;;;;19.13;9.98;;;;;;;24.07;68.91;99416.44;3469099;28;20089;-43
2021/07/12 03:45:13;;;;;;;22.27;11.30;;;;;;;24.14;69.34;99421.47;3472594;28;20056;-43
2021/07/12 03:46:54;;;;;;;;;;;;;;;24.20;68.44;99422.00;3469505;28;20057;-43
2021/07/12 03:48:37;;;;;;;23.38;11.05;;;;;;;24.26;68.19;99420.91;3471490;28;19971;-43
2021/07/12 03:50:19;;;;;;;16.60;11.73;;;;;;;24.32;67.96;99428.53;3470077;28;20506;-43
2021/07/12 03:52:02;;;;;;;17.38;10.98;;;;;;;24.38;67.69;99430.88;3479223;28;20143;-43
2021/07/12 03:53:43;;;;;;;15.68;11.27;;;;;;;24.44;67.84;99427.13;3471451;28;20072;-42
2021/07/12 03:55:25;;;;;;;20.77;11.18;;;;;;;24.49;67.24;99419.81;3469121;28;20097;-43
2021/07/12 03:57:06;;;;;;;26.92;11.98;;;;;;;24.55;69.30;99430.09;3472137;28;20080;-43
2021/07/12 03:58:48;;;;;;;16.60;11.45;;;;;;;24.61;69.69;99424.53;3468877;28;20082;-43
2021/07/12 04:00:30;;;;;;;19.15;11.60;;;;;;;24.66;69.25;99425.16;3476555;28;20095;-43
2021/07/12 04:02:11;;;;;;;26.43;11.50;;;;;;;24.76;69.22;99428.22;3481521;28;20522;-42
2021/07/12 04:03:54;;;;;;;29.88;12.40;;;;;;;24.82;69.23;99417.34;3478990;28;20084;-42
2021/07/12 04:05:35;;;;;;;20.92;12.02;;;;;;;24.89;69.53;99412.56;3478472;28;20084;-43
2021/07/12 04:07:16;;;;;;;30.55;13.05;;;;;;;25.00;69.41;99414.69;3481956;28;20088;-43
2021/07/12 04:08:58;;;;;;;30.58;12.55;;;;;;;25.12;70.17;99413.22;3477837;28;20088;-43
2021/07/12 04:10:40;;;;;;;35.65;13.93;;;;;;;25.23;70.78;99403.78;3482352;28;20053;-43
2021/07/12 04:12:23;;;;;;;29.55;13.05;;;;;;;25.36;70.60;99406.66;3473765;28;20077;-43
2021/07/12 04:14:05;;;;;;;28.65;12.07;;;;;;;25.48;69.72;99399.88;3469648;28;20077;-43
2021/07/12 04:15:47;;;;;;;20.40;11.45;;;;;;;25.60;67.90;99401.03;3470416;28;20054;-43
2021/07/12 04:17:28;;;;;;;16.25;10.50;;;;;;;25.70;67.50;99402.28;3470734;28;20459;-42
2021/07/12 04:19:09;;;;;;;17.05;10.57;;;;;;;25.78;64.92;99407.19;3468447;28;20537;-42
2021/07/12 04:20:51;;;;;;;17.20;11.15;;;;;;;25.84;64.67;99404.19;3470703;28;20227;-43
2021/07/12 04:22:32;;;;;;;15.30;10.52;;;;;;;25.90;64.60;99405.66;3469200;28;20470;-42
2021/07/12 04:24:13;;;;;;;15.75;11.48;;;;;;;25.94;64.46;99412.56;3471665;28;20048;-43
2021/07/12 04:25:56;;;;;;;15.10;11.70;;;;;;;25.99;63.46;99415.81;3470185;28;20076;-42
2021/07/12 04:27:37;;;;;;;14.77;10.98;;;;;;;26.01;62.41;99405.06;3480203;28;20500;-42
2021/07/12 04:29:19;;;;;;;16.17;11.20;;;;;;;26.01;62.44;99416.59;3476651;28;20132;-42
2021/07/12 04:31:00;;;;;;;16.75;11.00;;;;;;;26.03;61.97;99416.50;3482173;28;20132;-45
2021/07/12 04:32:42;;;;;;;17.13;11.10;;;;;;;26.02;62.22;99406.81;3474689;28;20103;-43
2021/07/12 04:34:23;;;;;;;14.73;10.35;;;;;;;26.01;62.18;99413.06;3468534;28;20052;-42
2021/07/12 04:36:05;;;;;;;17.67;10.63;;;;;;;26.01;61.96;99413.94;3478024;28;20048;-42
2021/07/12 04:37:46;;;;;;;15.07;10.27;;;;;;;26.00;62.53;99404.22;3480131;28;20523;-42
2021/07/12 04:39:28;;;;;;;12.82;10.00;;;;;;;25.98;61.91;99399.00;3481917;28;20072;-42
2021/07/12 04:41:10;;;;;;;15.15;10.30;;;;;;;25.97;62.00;99409.69;3477831;28;20138;-43
2021/07/12 04:42:51;;;;;;;21.88;9.65;;;;;;;25.96;61.56;99403.53;3482038;28;20111;-42
2021/07/12 04:44:33;;;;;;;18.65;11.00;;;;;;;25.96;62.25;99410.66;3475279;28;20084;-42
2021/07/12 04:46:14;;;;;;;13.82;10.57;;;;;;;25.93;61.51;99410.81;3468184;28;20498;-42
2021/07/12 04:47:56;;;;;;;15.52;10.60;;;;;;;25.92;62.41;99404.66;3469649;28;20511;-43
2021/07/12 04:49:37;;;;;;;22.08;11.23;;;;;;;25.93;61.20;99408.16;3470034;28;20084;-42
2021/07/12 04:51:19;;;;;;;18.88;11.45;;;;;;;25.94;62.24;99404.56;3479791;28;20084;-42
2021/07/12 04:53:00;;;;;;;12.15;10.55;;;;;;;25.95;62.38;99422.22;3475990;28;20073;-42
2021/07/12 04:54:42;;;;;;;15.00;10.82;;;;;;;25.97;62.83;99412.38;3468963;28;20499;-42
2021/07/12 04:56:24;;;;;;;17.65;11.20;;;;;;;25.98;62.22;99417.59;3476899;28;20083;-42
2021/07/12 04:58:07;;;;;;;15.90;10.85;;;;;;;26.02;63.00;99418.28;3483923;28;20049;-42
2021/07/12 04:59:49;;;;;;;23.52;11.30;;;;;;;26.07;62.76;99412.75;3474197;28;20176;-41
2021/07/12 05:01:33;;;;;;;14.52;10.75;;;;;;;26.17;62.33;99414.81;3472489;28;20080;-42
2021/07/12 05:03:17;;;;;;;22.30;11.25;;;;;;;26.31;62.24;99426.53;3482853;28;20045;-42
2021/07/12 05:04:58;;;;;;;18.33;10.88;;;;;;;26.46;61.66;99419.50;3479899;28;20054;-42
2021/07/12 05:06:39;;;;;;;25.42;10.93;;;;;;;26.65;60.61;99411.34;3484298;28;20508;-42
2021/07/12 05:08:20;;;;;;;15.98;10.50;;;;;;;26.80;60.42;99422.88;3476648;28;20081;-42
2021/07/12 05:10:03;;;;;;;20.65;10.30;;;;;;;26.96;58.80;99420.22;3470879;28;20107;-42
2021/07/12 05:11:46;;;;;;;22.10;9.40;;;;;;;27.16;57.85;99417.28;3480142;28;20088;-42
2021/07/12 05:13:28;;;;;;;14.98;9.60;;;;;;;27.40;56.74;99414.09;3481608;28;20077;-42
2021/07/12 05:15:12;;;;;;;16.20;9.02;;;;;;;27.59;54.58;99416.50;3481853;28;20053;-42
2021/07/12 05:16:54;;;;;;;18.27;8.40;;;;;;;27.76;54.01;99421.69;3479850;28;20140;-42
2021/07/12 05:18:37;;;;;;;15.52;8.40;;;;;;;27.85;54.74;99421.13;3484373;28;20096;-42
2021/07/12 05:20:18;;;;;;;;;;;;;;;27.91;53.89;99427.03;3480177;28;20407;-42
2021/07/12 05:22:00;;;;;;;13.25;8.05;;;;;;;27.91;53.26;99425.22;3483599;28;20014;-42
2021/07/12 05:23:41;;;;;;;15.13;8.18;;;;;;;27.94;52.13;99425.03;3472916;28;20119;-42
2021/07/12 05:25:22;;;;;;;10.95;8.23;;;;;;;27.99;52.04;99425.59;3472329;28;20053;-42
2021/07/12 05:27:05;;;;;;;10.73;8.13;;;;;;;28.05;52.14;99419.03;3470806;28;20107;-42
2021/07/12 05:28:48;;;;;;;10.32;8.15;;;;;;;28.17;51.95;99420.06;3474393;28;20053;-43
2021/07/12 05:30:29;;;;;;;15.15;8.10;;;;;;;28.34;52.42;99419.03;3484112;28;20531;-42
2021/07/12 05:32:10;;;;;;;15.95;7.90;;;;;;;28.45;52.71;99415.69;3479699;28;20055;-43
2021/07/12 05:33:52;;;;;;;12.68;7.43;;;;;;;28.59;51.30;99415.63;3483402;28;20407;-42
2021/07/12 05:35:33;;;;;;;9.07;7.28;;;;;;;28.72;51.10;99413.00;3480393;28;20077;-42
2021/07/12 05:37:15;;;;;;;9.75;7.65;;;;;;;28.87;50.31;99413.84;3481864;28;20045;-43
2021/07/12 05:38:56;;;;;;;8.68;7.50;;;;;;;28.98;49.73;99422.84;3470998;28;20057;-42
2021/07/12 05:40:38;;;;;;;9.38;8.45;;;;;;;28.98;49.74;99430.88;3473663;28;20506;-42
2021/07/12 05:42:20;;;;;;;13.43;7.85;;;;;;;28.95;50.62;99424.88;3470364;28;20080;-42
2021/07/12 05:44:01;;;;;;;16.33;8.20;;;;;;;28.85;50.08;99429.06;3477380;28;20514;-42
2021/07/12 05:45:42;;;;;;;14.95;6.80;;;;;;;28.79;50.64;99430.34;3483793;28;20049;-42
2021/07/12 05:47:24;;;;;;;9.23;7.10;;;;;;;28.78;50.63;99434.84;3472689;28;20140;-42
2021/07/12 05:49:05;;;;;;;13.80;7.43;;;;;;;28.84;50.98;99430.06;3470464;28;20083;-42
2021/07/12 05:50:46;;;;;;;13.60;7.72;;;;;;;28.89;50.71;99438.63;3482656;28;20479;-42
2021/07/12 05:52:31;;;;;;;18.25;7.70;;;;;;;28.95;51.26;99431.06;3476528;28;20076;-43
2021/07/12 05:54:13;;;;;;;20.33;7.80;;;;;;;28.98;50.54;99433.53;3470254;28;20081;-42
2021/07/12 05:55:54;;;;;;;13.60;7.78;;;;;;;29.01;49.44;99432.50;3476116;28;20091;-43
2021/07/12 05:57:36;;;;;;;18.48;7.95;;;;;;;29.04;49.11;99428.75;3483269;28;20098;-42
2021/07/12 05:59:18;;;;;;;12.75;7.60;;;;;;;29.13;50.27;99430.81;3480261;28;20083;-42
2021/07/12 06:01:04;;;;;;;16.15;8.35;;;;;;;29.23;49.50;99425.72;3479581;28;20045;-42
2021/07/12 06:02:46;;;;;;;18.58;8.85;;;;;;;29.35;49.49;99431.06;3482632;28;20080;-42
2021/07/12 06:04:28;;;;;;;14.02;7.78;;;;;;;29.51;51.68;99428.19;3477166;28;20084;-42
2021/07/12 06:06:09;;;;;;;15.25;8.30;;;;;;;29.69;48.69;99427.94;3469968;28;20057;-42
2021/07/12 06:07:51;;;;;;;16.13;8.05;;;;;;;29.82;46.49;99426.13;3473366;28;20049;-42
2021/07/12 06:09:32;;;;;;;16.17;7.47;;;;;;;29.98;47.99;99431.25;3470742;28;20085;-43
2021/07/12 06:11:13;;;;;;;14.77;8.35;;;;;;;30.05;47.07;99431.63;3480893;28;20144;-42
2021/07/12 06:12:55;;;;;;;15.18;8.00;;;;;;;30.15;46.88;99426.50;3481556;28;20041;-42
2021/07/12 06:14:37;;;;;;;19.17;8.63;;;;;;;30.19;47.61;99428.88;3469684;28;20095;-42
2021/07/12 06:16:18;;;;;;;12.18;8.18;;;;;;;30.23;46.98;99427.69;3476797;28;20053;-42
2021/07/12 06:18:00;;;;;;;12.13;7.88;;;;;;;30.26;47.65;99427.47;3483692;28;20053;-43
2021/07/12 06:19:41;;;;;;;12.60;8.10;;;;;;;30.35;46.90;99433.13;3474818;28;20134;-42
2021/07/12 06:21:23;;;;;;;14.63;7.75;;;;;;;30.43;48.16;99430.75;3470638;28;20068;-42
2021/07/12 06:23:04;;;;;;;16.92;8.07;;;;;;;30.52;47.24;99429.22;3480142;28;20056;-43
2021/07/12 06:24:46;;;;;;;19.13;8.48;;;;;;;30.54;46.46;99430.81;3480094;28;20076;-42
2021/07/12 06:26:27;;;;;;;33.67;10.80;;;;;;;30.48;46.32;99442.81;3482956;28;20076;-43
2021/07/12 06:28:09;;;;;;;14.65;8.07;;;;;;;30.40;46.62;99447.03;3478452;28;20045;-44
2021/07/12 06:29:50;;;;;;;20.80;8.65;;;;;;;30.35;47.35;99450.06;3469818;28;20103;-42
2021/07/12 06:31:32;;;;;;;24.13;9.02;;;;;;;30.42;47.82;99451.31;3473094;28;20049;-44
2021/07/12 06:33:13;;;;;;;19.52;8.50;;;;;;;30.53;46.89;99455.06;3470828;28;20056;-42
2021/07/12 06:34:55;;;;;;;10.15;8.23;;;;;;;30.64;47.15;99458.63;3472283;28;20579;-43
2021/07/12 06:36:36;;;;;;;10.32;8.30;;;;;;;30.72;46.40;99462.56;3472390;28;20532;-43
2021/07/12 06:38:17;;;;;;;15.93;8.75;;;;;;;30.72;45.45;99465.25;3469879;28;20140;-43
2021/07/12 06:39:59;;;;;;;13.52;9.45;;;;;;;30.66;46.48;99462.03;3470739;28;20544;-44
2021/07/12 06:41:40;;;;;;;10.85;8.95;;;;;;;30.63;47.31;99469.44;3469497;28;20589;-42
2021/07/12 06:43:22;;;;;;;13.40;9.07;;;;;;;30.42;46.21;99469.19;3476977;28;20072;-43
2021/07/12 06:45:04;;;;;;;17.38;9.85;;;;;;;30.20;47.80;99475.22;3482939;28;20056;-42
2021/07/12 06:46:46;;;;;;;21.38;10.20;;;;;;;29.97;48.71;99466.13;3480029;28;20056;-44
2021/07/12 06:48:27;;;;;;;15.73;10.48;;;;;;;29.77;48.93;99479.06;3479788;28;20096;-43
2021/07/12 06:50:09;;;;;;;13.55;9.63;;;;;;;29.51;49.30;99475.47;3469977;28;20058;-43
2021/07/12 06:51:55;;;;;;;13.77;10.10;;;;;;;29.28;50.12;99474.34;3474054;28;20494;-43
2021/07/12 06:53:36;;;;;;;15.65;10.15;;;;;;;29.11;50.65;99481.69;3469777;28;20084;-43
2021/07/12 06:55:18;;;;;;;14.00;10.73;;;;;;;28.97;51.78;99492.41;3473076;28;20053;-43
2021/07/12 06:56:59;;;;;;;18.02;10.73;;;;;;;28.84;52.19;99484.31;3470148;28;20081;-43
2021/07/12 06:58:42;;;;;;;14.95;10.32;;;;;;;28.77;52.66;99491.00;3471899;28;20473;-43
2021/07/12 07:00:24;;;;;;;15.52;11.48;;;;;;;28.67;52.59;99492.53;3469861;28;20068;-43
2021/07/12 07:02:05;;;;;;;18.25;11.75;;;;;;;28.53;53.10;99490.75;3482722;28;20060;-43
2021/07/12 07:03:47;;;;;;;14.02;10.20;;;;;;;28.40;53.57;99475.50;3477598;28;20076;-43
2021/07/12 07:05:28;;;;;;;15.75;10.98;;;;;;;28.22;54.34;99466.84;3469351;28;20571;-43
2021/07/12 07:07:10;;;;;;;12.23;9.70;;;;;;;28.08;54.95;99466.84;3477193;28;20045;-43
2021/07/12 07:08:51;;;;;;;17.08;10.45;;;;;;;28.03;55.76;99466.28;3482081;28;20136;-43
2021/07/12 07:10:32;;;;;;;15.30;10.23;;;;;;;28.00;56.06;99463.78;3471950;28;20081;-43
2021/07/12 07:12:14;;;;;;;14.80;10.63;;;;;;;27.99;56.34;99456.75;3474170;28;20088;-44
2021/07/12 07:13:56;;;;;;;15.80;11.10;;;;;;;28.03;55.66;99459.13;3482343;28;20451;-44
2021/07/12 07:15:37;;;;;;;14.52;10.15;;;;;;;28.07;55.59;99459.78;3478744;28;20049;-44
2021/07/12 07:17:19;;;;;;;16.20;11.30;;;;;;;28.06;55.72;99460.75;3482343;28;20056;-43
2021/07/12 07:19:00;;;;;;;15.82;10.82;;;;;;;28.12;55.91;99462.19;3473289;28;20132;-43
2021/07/12 07:20:45;;;;;;;13.38;10.40;;;;;;;28.12;55.69;99462.19;3470209;28;20053;-43
2021/07/12 07:22:27;;;;;;;15.27;10.88;;;;;;;28.14;55.65;99463.81;3470866;28;20135;-43
2021/07/12 07:24:08;;;;;;;19.45;12.25;;;;;;;28.13;55.82;99466.56;3472561;28;20525;-43
2021/07/12 07:25:50;;;;;;;14.90;10.68;;;;;;;28.10;56.07;99464.94;3470138;28;20053;-43
2021/07/12 07:27:32;;;;;;;12.93;10.13;;;;;;;28.10;56.64;99464.94;3475796;28;20072;-43
2021/07/12 07:29:15;;;;;;;15.63;10.35;;;;;;;28.09;56.67;99467.69;3482839;28;20528;-43
2021/07/12 07:30:56;;;;;;;14.57;11.63;;;;;;;28.07;56.56;99466.94;3472151;28;20073;-43
2021/07/12 07:32:39;;;;;;;19.20;11.38;;;;;;;28.07;57.17;99464.28;3469745;28;20046;-43
2021/07/12 07:34:20;;;;;;;20.50;10.73;;;;;;;28.07;55.87;99467.78;3469974;28;20049;-43
2021/07/12 07:36:03;;;;;;;14.68;10.63;;;;;;;28.06;56.47;99466.09;3471702;28;20072;-43
2021/07/12 07:37:46;;;;;;;13.10;10.82;;;;;;;28.03;56.24;99468.94;3468800;28;20049;-43
2021/07/12 07:39:27;;;;;;;;;;;;;;;28.05;56.90;99473.25;3472893;28;20490;-43
2021/07/12 07:41:23;;;;;;;17.25;10.88;;;;;;;28.07;57.53;99481.13;3469691;28;20031;-43
2021/07/12 07:43:04;;;;;;;16.23;10.60;;;;;;;28.09;57.68;99483.69;3478700;28;20091;-43
2021/07/12 07:44:46;;;;;;;15.50;10.20;;;;;;;28.11;58.01;99488.00;3479828;28;20045;-43
2021/07/12 07:46:28;;;;;;;18.70;11.20;;;;;;;28.15;58.17;99481.50;3482448;28;20052;-44
2021/07/12 07:48:10;;;;;;;18.92;10.75;;;;;;;28.19;58.47;99490.19;3477008;28;20079;-43
2021/07/12 07:49:51;;;;;;;16.45;10.88;;;;;;;28.20;57.00;99482.09;3469120;28;20049;-43
2021/07/12 07:51:34;;;;;;;19.13;11.05;;;;;;;28.21;57.75;99486.47;3470985;28;20530;-43
2021/07/12 07:53:16;;;;;;;28.08;11.73;;;;;;;28.23;56.97;99481.03;3468078;28;20144;-43
2021/07/12 07:54:58;;;;;;;20.52;11.70;;;;;;;28.23;57.49;99483.69;3478552;28;20056;-43
2021/07/12 07:56:39;;;;;;;14.95;11.52;;;;;;;28.24;58.13;99490.75;3480595;28;20096;-43